createdAt,value
2019-02-18T00:02:15.145Z,100697.87
2019-02-18T00:04:45.599Z,100693.55
2019-02-18T00:07:16.102Z,100695.28
2019-02-18T00:09:46.565Z,100695.28
2019-02-18T00:12:17.078Z,100697.29
2019-02-18T00:14:47.581Z,100698.63
2019-02-18T00:17:18.240Z,100698.63
2019-02-18T00:19:48.700Z,100696.13
2019-02-18T00:22:19.163Z,100696.48
2019-02-18T00:24:49.658Z,100697.63
2019-02-18T00:27:20.119Z,100698.45
2019-02-18T00:29:50.577Z,100698.45
2019-02-18T00:32:21.078Z,100697.63
2019-02-18T00:34:51.533Z,100690.91
2019-02-18T00:37:24.378Z,100691.27
2019-02-18T00:39:54.342Z,100690.59
2019-02-18T00:42:25.011Z,100691.11
2019-02-18T00:44:55.526Z,100691.11
2019-02-18T00:47:25.987Z,100697.16
2019-02-18T00:49:56.451Z,100688.76
2019-02-18T00:52:26.962Z,100680.55
2019-02-18T00:54:57.436Z,100666.78
2019-02-18T00:57:27.947Z,100671.67
2019-02-18T00:59:58.449Z,100666.47
2019-02-18T01:02:29.006Z,100663.78
2019-02-18T01:04:59.614Z,100656.73
2019-02-18T01:07:34.829Z,100651.36
2019-02-18T01:10:02.370Z,100653.06
2019-02-18T01:12:32.833Z,100644.34
2019-02-18T01:15:03.799Z,100651.22
2019-02-18T01:17:34.427Z,100652.72
2019-02-18T01:20:05.495Z,100647.70
2019-02-18T01:22:35.963Z,100645.70
2019-02-18T01:25:07.617Z,100646.38
2019-02-18T01:27:38.085Z,100646.53
2019-02-18T01:30:11.389Z,100647.41
2019-02-18T01:32:41.949Z,100640.51
2019-02-18T01:35:12.657Z,100634.67
2019-02-18T01:37:46.083Z,100633.14
2019-02-18T01:40:15.611Z,100504.92
2019-02-18T01:42:46.089Z,100629.98
2019-02-18T01:45:16.707Z,100625.97
2019-02-18T01:47:47.173Z,100621.94
2019-02-18T01:50:17.789Z,100624.63
2019-02-18T01:52:48.257Z,100626.13
2019-02-18T01:55:18.778Z,100625.81
2019-02-18T01:57:49.249Z,100631.84
2019-02-18T02:00:19.853Z,100630.51
2019-02-18T02:02:50.359Z,100625.81
2019-02-18T02:05:20.914Z,100622.78
2019-02-18T02:07:56.306Z,100622.98
2019-02-18T02:10:23.606Z,100617.27
2019-02-18T02:13:14.443Z,100616.95
2019-02-18T02:15:44.905Z,100620.11
2019-02-18T02:18:15.424Z,100624.98
2019-02-18T02:20:45.905Z,100618.12
2019-02-18T02:23:16.439Z,100623.65
2019-02-18T02:25:46.954Z,100623.30
2019-02-18T02:28:17.430Z,100623.48
2019-02-18T02:30:47.907Z,100630.85
2019-02-18T02:33:18.425Z,100628.65
2019-02-18T02:35:48.890Z,100622.46
2019-02-18T02:38:19.413Z,100626.99
2019-02-18T02:40:49.994Z,100622.63
2019-02-18T02:43:20.519Z,100626.64
2019-02-18T02:45:50.998Z,100622.45
2019-02-18T02:48:21.466Z,100627.98
2019-02-18T02:50:52.068Z,100629.64
2019-02-18T02:53:22.537Z,100632.96
2019-02-18T02:55:53.016Z,100632.28
2019-02-18T02:58:23.523Z,100625.60
2019-02-18T03:00:54.030Z,100622.61
2019-02-18T03:03:24.583Z,100629.63
2019-02-18T03:05:55.115Z,100618.91
2019-02-18T03:08:25.640Z,100616.41
2019-02-18T03:10:56.111Z,100615.25
2019-02-18T03:13:26.601Z,100614.58
2019-02-18T03:15:57.118Z,100613.92
2019-02-18T03:18:27.689Z,100608.72
2019-02-18T03:20:58.173Z,100614.91
2019-02-18T03:23:28.702Z,100602.52
2019-02-18T03:25:59.221Z,100607.53
2019-02-18T03:29:10.434Z,100605.88
2019-02-18T03:31:40.917Z,100610.21
2019-02-18T03:34:21.619Z,100601.19
2019-02-18T03:36:52.111Z,100602.84
2019-02-18T03:39:22.594Z,100602.84
2019-02-18T03:41:53.483Z,100608.88
2019-02-18T03:44:23.975Z,100611.41
2019-02-18T03:46:54.498Z,100606.87
2019-02-18T03:49:25.003Z,100481.26
2019-02-18T03:51:55.486Z,100609.56
2019-02-18T03:54:26.046Z,100616.25
2019-02-18T03:56:56.641Z,100608.22
2019-02-18T03:59:27.185Z,100611.92
2019-02-18T04:01:57.827Z,100616.60
2019-02-18T04:04:28.371Z,100618.09
2019-02-18T04:06:58.860Z,100613.72
2019-02-18T04:09:29.386Z,100623.28
2019-02-18T04:11:59.887Z,100617.58
2019-02-18T04:14:30.477Z,100620.91
2019-02-18T04:17:01.178Z,100612.20
2019-02-18T04:19:31.745Z,100631.97
2019-02-18T04:22:02.262Z,100631.97
2019-02-18T04:24:32.735Z,100637.81
2019-02-18T04:27:03.265Z,100629.23
2019-02-18T04:29:33.755Z,100629.23
2019-02-18T04:32:04.234Z,100625.88
2019-02-18T04:34:34.715Z,100631.91
2019-02-18T04:37:05.191Z,100631.91
2019-02-18T04:39:35.707Z,100637.26
2019-02-18T04:42:06.300Z,100640.77
2019-02-18T04:44:36.922Z,100640.77
2019-02-18T04:47:07.506Z,100643.95
2019-02-18T04:49:38.006Z,100644.30
2019-02-18T04:52:08.477Z,100637.09
2019-02-18T04:54:38.956Z,100637.09
2019-02-18T04:57:09.431Z,100647.97
2019-02-18T04:59:39.954Z,100645.95
2019-02-18T05:02:10.437Z,100645.95
2019-02-18T05:04:40.913Z,100638.95
2019-02-18T05:07:11.476Z,100652.66
2019-02-18T05:09:41.982Z,100659.84
2019-02-18T05:12:12.466Z,100648.09
2019-02-18T05:14:43.005Z,100648.09
2019-02-18T05:17:13.517Z,100656.30
2019-02-18T05:19:43.983Z,100669.03
2019-02-18T05:22:14.525Z,100669.03
2019-02-18T05:24:44.982Z,100674.03
2019-02-18T05:27:15.486Z,100674.03
2019-02-18T05:29:45.959Z,100670.02
2019-02-18T05:32:16.527Z,100671.70
2019-02-18T05:34:46.978Z,100675.89
2019-02-18T05:37:17.492Z,100678.41
2019-02-18T05:39:47.962Z,100680.06
2019-02-18T05:42:18.489Z,100687.80
2019-02-18T05:44:48.961Z,100692.83
2019-02-18T05:47:19.424Z,100701.23
2019-02-18T05:49:49.951Z,100701.23
2019-02-18T05:52:20.415Z,100702.61
2019-02-18T05:54:50.914Z,100702.13
2019-02-18T05:57:22.855Z,100704.67
2019-02-18T05:59:53.683Z,100708.05
2019-02-18T06:02:24.179Z,100701.36
2019-02-18T06:04:54.852Z,100712.94
2019-02-18T06:07:25.332Z,100711.61
2019-02-18T06:09:55.923Z,100710.59
2019-02-18T06:12:26.432Z,100711.42
2019-02-18T06:14:56.935Z,100713.08
2019-02-18T06:17:27.463Z,100714.26
2019-02-18T06:19:57.994Z,100717.58
2019-02-18T06:22:28.503Z,100715.64
2019-02-18T06:24:59.025Z,100722.97
2019-02-18T06:27:29.532Z,100722.97
2019-02-18T06:30:00.415Z,100720.84
2019-02-18T06:32:31.204Z,100722.77
2019-02-18T06:35:01.724Z,100725.67
2019-02-18T06:37:32.411Z,100734.33
2019-02-18T06:40:02.978Z,100734.88
2019-02-18T06:42:33.829Z,100731.41
2019-02-18T06:45:35.423Z,100737.45
2019-02-18T06:48:21.485Z,100738.41
2019-02-18T06:50:52.374Z,100740.64
2019-02-18T06:53:22.891Z,100742.00
2019-02-18T06:55:53.386Z,100746.75
2019-02-18T06:58:45.524Z,100737.75
2019-02-18T07:01:21.647Z,100741.53
2019-02-18T07:04:26.226Z,100736.14
2019-02-18T07:07:08.401Z,100734.80
2019-02-18T07:09:55.324Z,100730.71
2019-02-18T07:12:28.934Z,100729.05
2019-02-18T07:14:59.438Z,100732.53
2019-02-18T07:17:30.045Z,100731.42
2019-02-18T07:20:00.574Z,100727.05
2019-02-18T07:22:31.614Z,100723.07
2019-02-18T07:25:02.123Z,100724.80
2019-02-18T07:27:32.593Z,100723.47
2019-02-18T07:30:03.159Z,100716.03
2019-02-18T07:32:33.648Z,100713.19
2019-02-18T07:35:04.627Z,100717.23
2019-02-18T07:37:35.104Z,100604.38
2019-02-18T07:40:06.636Z,100718.08
2019-02-18T07:42:37.183Z,100716.15
2019-02-18T07:45:08.832Z,100715.47
2019-02-18T07:47:39.307Z,100710.34
2019-02-18T07:50:19.992Z,100712.72
2019-02-18T07:52:42.569Z,100716.00
2019-02-18T07:55:13.247Z,100717.56
2019-02-18T07:57:43.781Z,100714.23
2019-02-18T08:00:14.968Z,100715.88
2019-02-18T08:02:45.488Z,100709.70
2019-02-18T08:05:16.011Z,100712.70
2019-02-18T08:07:46.570Z,100711.87
2019-02-18T08:10:17.055Z,100716.59
2019-02-18T08:12:47.538Z,100715.75
2019-02-18T08:15:18.201Z,100712.60
2019-02-18T08:17:48.787Z,100717.90
2019-02-18T08:20:19.269Z,100717.50
2019-02-18T08:22:49.809Z,100714.95
2019-02-18T08:25:20.291Z,100721.13
2019-02-18T08:27:50.934Z,100718.16
2019-02-18T08:30:21.547Z,100714.00
2019-02-18T08:32:52.081Z,100706.28
2019-02-18T08:35:22.655Z,100709.17
2019-02-18T08:37:54.241Z,100708.58
2019-02-18T08:40:24.775Z,100706.69
2019-02-18T08:42:55.276Z,100709.77
2019-02-18T08:45:25.874Z,100703.66
2019-02-18T08:47:56.343Z,100707.82
2019-02-18T08:50:26.860Z,100707.42
2019-02-18T08:52:57.338Z,100701.95
2019-02-18T08:55:27.847Z,100705.81
2019-02-18T08:57:58.382Z,100701.48
2019-02-18T09:00:28.863Z,100708.20
2019-02-18T09:02:59.443Z,100711.30
2019-02-18T09:05:29.972Z,100707.23
2019-02-18T09:08:00.492Z,100704.80
2019-02-18T09:10:33.885Z,100698.00
2019-02-18T09:13:03.308Z,100693.58
2019-02-18T09:15:33.798Z,100700.84
2019-02-18T09:18:04.331Z,100700.02
2019-02-18T09:20:34.814Z,100709.14
2019-02-18T09:23:23.056Z,100585.41
2019-02-18T09:25:56.506Z,100694.13
2019-02-18T09:28:27.030Z,100695.00
2019-02-18T09:30:57.812Z,100697.81
2019-02-18T09:33:28.337Z,100685.61
2019-02-18T09:35:58.818Z,100677.10
2019-02-18T09:38:29.295Z,100681.84
2019-02-18T09:40:59.807Z,100681.97
2019-02-18T09:43:30.455Z,100673.36
2019-02-18T09:46:00.932Z,100676.27
2019-02-18T09:48:31.405Z,100676.34
2019-02-18T09:51:01.923Z,100671.22
2019-02-18T09:53:32.540Z,100669.98
2019-02-18T09:56:03.109Z,100665.67
2019-02-18T09:58:33.590Z,100557.58
2019-02-18T10:01:04.300Z,100659.22
2019-02-18T10:03:34.759Z,100666.15
2019-02-18T10:06:05.374Z,100659.77
2019-02-18T10:08:35.867Z,100662.91
2019-02-18T10:11:06.463Z,100653.66
2019-02-18T10:13:37.010Z,100646.30
2019-02-18T10:16:07.496Z,100643.11
2019-02-18T10:18:37.979Z,100641.39
2019-02-18T10:21:08.497Z,100629.82
2019-02-18T10:23:38.991Z,100633.86
2019-02-18T10:26:09.616Z,100629.87
2019-02-18T10:28:40.139Z,100624.96
2019-02-18T10:31:10.760Z,100626.09
2019-02-18T10:33:41.356Z,100628.55
2019-02-18T10:36:11.902Z,100618.42
2019-02-18T10:38:42.510Z,100609.78
2019-02-18T10:41:13.068Z,100611.38
2019-02-18T10:43:43.646Z,100601.23
2019-02-18T10:46:14.246Z,100598.09
2019-02-18T10:48:44.972Z,100590.41
2019-02-18T10:51:15.453Z,100590.77
2019-02-18T10:53:45.992Z,100588.63
2019-02-18T10:56:16.471Z,100578.62
2019-02-18T10:58:47.164Z,100575.82
2019-02-18T11:01:17.643Z,100573.44
2019-02-18T11:03:48.190Z,100557.43
2019-02-18T11:06:18.847Z,100551.97
2019-02-18T11:08:49.317Z,100556.22
2019-02-18T11:11:19.854Z,100551.19
2019-02-18T11:13:50.532Z,100544.05
2019-02-18T11:16:21.038Z,100534.30
2019-02-18T11:18:51.665Z,100536.30
2019-02-18T11:21:22.154Z,100529.62
2019-02-18T11:23:52.695Z,100527.23
2019-02-18T11:26:23.166Z,100528.98
2019-02-18T11:28:53.669Z,100523.62
2019-02-18T11:31:24.132Z,100522.09
2019-02-18T11:33:54.703Z,100512.02
2019-02-18T11:36:25.168Z,100510.45
2019-02-18T11:38:55.663Z,100511.37
2019-02-18T11:41:27.620Z,100507.03
2019-02-18T11:43:58.245Z,100508.71
2019-02-18T11:46:28.803Z,100503.01
2019-02-18T11:48:59.361Z,100500.07
2019-02-18T11:51:30.585Z,100490.84
2019-02-18T11:54:01.043Z,100494.67
2019-02-18T11:56:31.636Z,100489.20
2019-02-18T11:59:02.109Z,100485.63
2019-02-18T12:01:32.626Z,100485.89
2019-02-18T12:04:03.112Z,100483.23
2019-02-18T12:06:33.591Z,100481.89
2019-02-18T12:09:05.553Z,100478.34
2019-02-18T12:11:38.277Z,100470.45
2019-02-18T12:14:08.393Z,100361.83
2019-02-18T12:16:38.915Z,100468.93
2019-02-18T12:19:09.466Z,100467.29
2019-02-18T12:21:39.983Z,100461.80
2019-02-18T12:24:10.516Z,100467.26
2019-02-18T12:26:41.069Z,100461.31
2019-02-18T12:29:11.625Z,100454.20
2019-02-18T12:31:42.129Z,100454.72
2019-02-18T12:34:12.597Z,100448.71
2019-02-18T12:36:43.233Z,100446.30
2019-02-18T12:39:15.054Z,100443.63
2019-02-18T12:41:48.627Z,100442.56
2019-02-18T12:44:17.732Z,100443.14
2019-02-18T12:46:48.357Z,100444.00
2019-02-18T12:49:18.926Z,100432.07
2019-02-18T12:51:49.606Z,100433.80
2019-02-18T12:54:20.119Z,100433.30
2019-02-18T12:56:50.678Z,100441.01
2019-02-18T12:59:21.234Z,100431.20
2019-02-18T13:01:52.845Z,100433.41
2019-02-18T13:04:23.327Z,100426.36
2019-02-18T13:06:54.621Z,100429.14
2019-02-18T13:09:25.250Z,100429.47
2019-02-18T13:14:28.025Z,100424.81
2019-02-18T13:16:58.552Z,100419.92
2019-02-18T13:19:29.116Z,100420.22
2019-02-18T13:21:59.977Z,100419.70
2019-02-18T13:24:30.477Z,100416.47
2019-02-18T13:27:01.023Z,100420.59
2019-02-18T13:29:31.541Z,100416.52
2019-02-18T13:32:02.230Z,100413.80
2019-02-18T13:34:33.139Z,100402.34
2019-02-18T13:37:04.882Z,100315.84
2019-02-18T13:39:35.476Z,100400.70
2019-02-18T13:42:07.660Z,100394.43
2019-02-18T13:44:39.795Z,100396.69
2019-02-18T13:47:10.347Z,100403.83
2019-02-18T13:49:42.084Z,100396.19
2019-02-18T13:52:12.629Z,100398.62
2019-02-18T13:54:43.101Z,100396.69
2019-02-18T13:57:13.673Z,100399.97
2019-02-18T13:59:44.209Z,100395.84
2019-02-18T14:02:14.931Z,100402.63
2019-02-18T14:04:45.381Z,100399.08
2019-02-18T14:07:15.913Z,100395.00
2019-02-18T14:09:46.449Z,100394.18
2019-02-18T14:12:17.437Z,100402.39
2019-02-18T14:14:47.955Z,100390.38
2019-02-18T14:17:18.480Z,100394.20
2019-02-18T14:19:48.975Z,100389.02
2019-02-18T14:22:19.742Z,100388.14
2019-02-18T14:24:50.252Z,100388.44
2019-02-18T14:27:20.913Z,100382.97
2019-02-18T14:29:51.749Z,100382.90
2019-02-18T14:32:22.303Z,100387.25
2019-02-18T14:34:52.843Z,100386.41
2019-02-18T14:37:23.455Z,100388.03
2019-02-18T14:39:53.938Z,100389.47
2019-02-18T14:42:24.758Z,100385.64
2019-02-18T14:44:55.331Z,100385.86
2019-02-18T14:47:26.748Z,100385.02
2019-02-18T14:49:57.390Z,100392.36
2019-02-18T14:52:27.933Z,100392.06
2019-02-18T14:54:58.588Z,100387.91
2019-02-18T14:57:29.373Z,100396.88
2019-02-18T14:59:59.861Z,100395.25
2019-02-18T15:02:30.364Z,100396.02
2019-02-18T15:05:00.901Z,100396.76
2019-02-18T15:07:31.462Z,100395.67
2019-02-18T15:10:02.223Z,100393.95
2019-02-18T15:12:33.305Z,100395.56
2019-02-18T15:15:03.799Z,100393.32
2019-02-18T15:17:34.412Z,100391.88
2019-02-18T15:20:05.056Z,100391.00
2019-02-18T15:22:35.570Z,100398.34
2019-02-18T15:25:06.422Z,100400.17
2019-02-18T15:27:37.119Z,100396.30
2019-02-18T15:30:08.802Z,100393.75
2019-02-18T15:32:39.578Z,100401.00
2019-02-18T15:35:10.322Z,100398.70
2019-02-18T15:37:40.915Z,100405.91
2019-02-18T15:40:12.619Z,100405.82
2019-02-18T15:42:43.333Z,100408.69
2019-02-18T15:45:14.252Z,100409.99
2019-02-18T15:47:44.724Z,100406.61
2019-02-18T15:50:16.081Z,100408.08
2019-02-18T15:52:46.560Z,100413.13
2019-02-18T15:55:17.139Z,100416.25
2019-02-18T15:57:47.598Z,100417.98
2019-02-18T16:00:20.327Z,100416.42
2019-02-18T16:02:51.222Z,100412.99
2019-02-18T16:05:21.958Z,100422.81
2019-02-18T16:07:52.561Z,100426.69
2019-02-18T16:10:23.023Z,100429.13
2019-02-18T16:12:53.583Z,100432.50
2019-02-18T16:15:24.279Z,100434.15
2019-02-18T16:17:54.760Z,100435.83
2019-02-18T16:20:25.278Z,100439.41
2019-02-18T16:22:55.818Z,100441.61
2019-02-18T16:25:26.361Z,100440.84
2019-02-18T16:27:56.844Z,100441.59
2019-02-18T16:30:27.394Z,100453.84
2019-02-18T16:32:57.912Z,100447.78
2019-02-18T16:35:28.768Z,100447.77
2019-02-18T16:37:59.374Z,100445.52
2019-02-18T16:40:30.243Z,100448.25
2019-02-18T16:43:02.452Z,100446.62
2019-02-18T16:45:33.487Z,100456.17
2019-02-18T16:48:04.293Z,100450.77
2019-02-18T16:50:34.826Z,100457.56
2019-02-18T16:53:05.316Z,100457.87
2019-02-18T16:55:36.069Z,100462.50
2019-02-18T16:58:06.591Z,100464.10
2019-02-18T17:00:37.311Z,100461.91
2019-02-18T17:03:07.815Z,100470.56
2019-02-18T17:05:38.320Z,100471.46
2019-02-18T17:08:11.115Z,100472.61
2019-02-18T17:10:41.636Z,100472.97
2019-02-18T17:13:12.125Z,100475.83
2019-02-18T17:15:42.602Z,100472.43
2019-02-18T17:18:13.233Z,100478.22
2019-02-18T17:20:43.734Z,100475.33
2019-02-18T17:23:14.468Z,100479.75
2019-02-18T17:25:45.119Z,100481.92
2019-02-18T17:28:15.630Z,100486.87
2019-02-18T17:30:46.099Z,100491.36
2019-02-18T17:33:16.606Z,100488.89
2019-02-18T17:35:47.123Z,100494.98
2019-02-18T17:38:17.599Z,100492.09
2019-02-18T17:40:48.074Z,100496.61
2019-02-18T17:43:18.694Z,100500.70
2019-02-18T17:45:49.207Z,100503.25
2019-02-18T17:48:19.683Z,100501.41
2019-02-18T17:50:50.529Z,100507.41
2019-02-18T17:53:21.004Z,100501.72
2019-02-18T17:55:51.472Z,100501.02
2019-02-18T17:58:21.995Z,100505.41
2019-02-18T18:00:54.438Z,100504.92
2019-02-18T18:03:25.379Z,100504.14
2019-02-18T18:05:55.867Z,100511.24
2019-02-18T18:08:26.377Z,100510.45
2019-02-18T18:10:56.838Z,100511.11
2019-02-18T18:13:27.354Z,100513.11
2019-02-18T18:15:57.819Z,100514.69
2019-02-18T18:18:28.326Z,100517.01
2019-02-18T18:20:58.802Z,100511.41
2019-02-18T18:23:29.337Z,100515.27
2019-02-18T18:25:59.838Z,100517.95
2019-02-18T18:28:30.443Z,100514.65
2019-02-18T18:31:01.147Z,100525.89
2019-02-18T18:33:31.671Z,100531.63
2019-02-18T18:36:02.137Z,100526.02
2019-02-18T18:38:32.668Z,100526.52
2019-02-18T18:41:03.142Z,100529.13
2019-02-18T18:43:34.241Z,100539.86
2019-02-18T18:46:04.923Z,100536.43
2019-02-18T18:48:35.447Z,100537.56
2019-02-18T18:51:06.023Z,100542.88
2019-02-18T18:53:36.486Z,100545.88
2019-02-18T18:56:06.946Z,100545.89
2019-02-18T18:58:37.398Z,100546.09
2019-02-18T19:01:08.008Z,100547.14
2019-02-18T19:03:38.466Z,100544.53
2019-02-18T19:06:09.016Z,100551.79
2019-02-18T19:08:39.513Z,100559.50
2019-02-18T19:11:10.025Z,100556.27
2019-02-18T19:13:42.250Z,100555.73
2019-02-18T19:16:12.909Z,100557.37
2019-02-18T19:21:37.570Z,100557.25
2019-02-18T19:24:08.025Z,100559.31
2019-02-18T19:26:38.491Z,100556.38
2019-02-18T19:29:08.993Z,100555.45
2019-02-18T19:31:39.733Z,100559.17
2019-02-18T19:34:10.262Z,100560.22
2019-02-18T19:36:40.727Z,100565.30
2019-02-18T19:39:11.759Z,100559.26
2019-02-18T19:41:42.272Z,100565.38
2019-02-18T19:44:12.774Z,100565.61
2019-02-18T19:46:43.230Z,100564.12
2019-02-18T19:49:13.759Z,100566.91
2019-02-18T19:51:44.217Z,100567.50
2019-02-18T19:54:14.736Z,100559.72
2019-02-18T19:56:45.197Z,100565.98
2019-02-18T19:59:15.710Z,100563.91
2019-02-18T20:01:46.270Z,100559.75
2019-02-18T20:04:16.771Z,100563.48
2019-02-18T20:06:47.373Z,100565.80
2019-02-18T20:09:17.874Z,100566.02
2019-02-18T20:11:48.516Z,100563.64
2019-02-18T20:14:19.025Z,100568.42
2019-02-18T20:16:49.524Z,100562.19
2019-02-18T20:19:19.998Z,100562.69
2019-02-18T20:21:50.514Z,100560.50
2019-02-18T20:24:21.362Z,100561.66
2019-02-18T20:26:51.879Z,100554.82
2019-02-18T20:29:22.378Z,100559.70
2019-02-18T20:31:52.846Z,100558.17
2019-02-18T20:34:23.306Z,100560.88
2019-02-18T20:36:53.804Z,100561.52
2019-02-18T20:39:24.309Z,100557.46
2019-02-18T20:41:54.775Z,100558.08
2019-02-18T20:44:25.251Z,100558.09
2019-02-18T20:46:55.762Z,100557.70
2019-02-18T20:49:26.216Z,100560.31
2019-02-18T20:51:56.910Z,100563.02
2019-02-18T20:54:27.364Z,100563.02
2019-02-18T20:56:57.879Z,100559.98
2019-02-18T20:59:28.345Z,100563.02
2019-02-18T21:01:58.953Z,100569.95
2019-02-18T21:04:29.701Z,100567.16
2019-02-18T21:07:00.226Z,100568.52
2019-02-18T21:09:30.704Z,100562.26
2019-02-18T21:12:01.177Z,100561.33
2019-02-18T21:14:31.691Z,100568.38
2019-02-18T21:17:02.142Z,100555.02
2019-02-18T21:19:32.641Z,100562.58
2019-02-18T21:22:03.142Z,100563.31
2019-02-18T21:24:33.647Z,100563.64
2019-02-18T21:27:04.099Z,100560.52
2019-02-18T21:29:34.598Z,100562.15
2019-02-18T21:32:05.108Z,100561.46
2019-02-18T21:34:35.588Z,100562.53
2019-02-18T21:37:06.058Z,100565.13
2019-02-18T21:39:36.559Z,100563.53
2019-02-18T21:42:07.123Z,100571.08
2019-02-18T21:44:37.834Z,100567.00
2019-02-18T21:47:08.307Z,100566.34
2019-02-18T21:49:38.821Z,100564.50
2019-02-18T21:52:09.295Z,100569.76
2019-02-18T21:54:39.802Z,100568.08
2019-02-18T21:57:10.269Z,100572.53
2019-02-18T21:59:40.785Z,100572.82
2019-02-18T22:02:11.253Z,100580.87
2019-02-18T22:04:41.729Z,100574.45
2019-02-18T22:07:12.245Z,100571.06
2019-02-18T22:09:42.720Z,100574.90
2019-02-18T22:12:13.515Z,100451.39
2019-02-18T22:14:44.052Z,100588.39
2019-02-18T22:17:14.548Z,100592.48
2019-02-18T22:19:45.189Z,100589.73
2019-02-18T22:22:15.709Z,100594.17
2019-02-18T22:24:46.325Z,100592.89
2019-02-18T22:27:16.990Z,100596.98
2019-02-18T22:29:47.453Z,100597.23
2019-02-18T22:32:18.058Z,100595.94
2019-02-18T22:34:48.533Z,100598.38
2019-02-18T22:37:19.006Z,100593.22
2019-02-18T22:39:49.522Z,100605.53
2019-02-18T22:42:20.041Z,100604.05
2019-02-18T22:44:50.626Z,100607.63
2019-02-18T22:47:22.464Z,100608.85
2019-02-18T22:49:52.973Z,100616.46
2019-02-18T22:52:23.450Z,100614.98
2019-02-18T22:54:54.226Z,100611.64
2019-02-18T22:57:24.738Z,100616.91
2019-02-18T22:59:55.221Z,100618.81
2019-02-18T23:02:25.740Z,100621.17
2019-02-18T23:04:56.217Z,100627.59
2019-02-18T23:07:26.738Z,100620.78
2019-02-18T23:09:57.206Z,100619.61
2019-02-18T23:12:27.710Z,100615.39
2019-02-18T23:14:58.166Z,100621.61
2019-02-18T23:17:28.665Z,100616.73
2019-02-18T23:19:59.178Z,100613.89
2019-02-18T23:22:29.691Z,100614.41
2019-02-18T23:25:00.266Z,100618.62
2019-02-18T23:27:31.032Z,100608.94
2019-02-18T23:30:01.488Z,100614.49
2019-02-18T23:32:31.982Z,100610.84
2019-02-18T23:35:02.483Z,100607.68
2019-02-18T23:37:33.280Z,100609.06
2019-02-18T23:40:03.897Z,100609.25
2019-02-18T23:42:34.466Z,100607.25
2019-02-18T23:45:05.230Z,100600.25
2019-02-18T23:47:35.700Z,100607.81
2019-02-18T23:50:06.433Z,100606.85
2019-02-18T23:52:36.903Z,100605.16
2019-02-18T23:55:07.644Z,100611.76
2019-02-18T23:57:38.119Z,100603.90
